createdAt,value
2023-05-01T00:00:25.898Z,60.10
2023-05-01T00:02:54.466Z,60.20
2023-05-01T00:05:21.511Z,60.40
2023-05-01T00:07:48.411Z,60.40
2023-05-01T00:10:15.339Z,60.30
2023-05-01T00:12:42.226Z,60.50
2023-05-01T00:15:09.772Z,60.40
2023-05-01T00:17:36.689Z,60.50
2023-05-01T00:20:05.263Z,60.60
2023-05-01T00:22:32.409Z,60.90
2023-05-01T00:24:59.210Z,61.10
2023-05-01T00:27:26.305Z,61.30
2023-05-01T00:29:53.251Z,61.10
2023-05-01T00:32:20.220Z,62.30
2023-05-01T00:34:48.437Z,61.50
2023-05-01T00:37:15.419Z,61.40
2023-05-01T00:39:42.199Z,61.40
2023-05-01T00:42:09.133Z,61.20
2023-05-01T00:44:36.132Z,61.30
2023-05-01T00:47:04.370Z,61.30
2023-05-01T00:49:31.595Z,61.40
2023-05-01T00:51:58.555Z,61.50
2023-05-01T00:54:28.168Z,61.80
2023-05-01T00:56:55.503Z,61.70
2023-05-01T00:59:22.600Z,61.60
2023-05-01T01:01:50.793Z,61.60
2023-05-01T01:04:17.783Z,61.60
2023-05-01T01:06:48.181Z,61.60
2023-05-01T01:09:39.983Z,61.70
2023-05-01T01:12:13.277Z,61.60
2023-05-01T01:14:48.243Z,61.50
2023-05-01T01:17:38.587Z,61.50
2023-05-01T01:20:23.810Z,61.40
2023-05-01T01:23:18.365Z,61.50
2023-05-01T01:25:57.064Z,61.50
2023-05-01T01:28:43.235Z,61.50
2023-05-01T01:31:25.454Z,61.30
2023-05-01T01:34:13.018Z,61.30
2023-05-01T01:36:54.958Z,61.40
2023-05-01T01:39:36.914Z,61.50
2023-05-01T01:42:09.475Z,61.80
2023-05-01T01:44:47.856Z,62.10
2023-05-01T01:47:16.617Z,62.40
2023-05-01T01:49:48.271Z,62.70
2023-05-01T01:52:17.129Z,63.10
2023-05-01T01:54:52.140Z,63.40
2023-05-01T01:57:21.529Z,63.70
2023-05-01T01:59:49.902Z,63.90
2023-05-01T02:02:20.042Z,63.90
2023-05-01T02:04:49.432Z,63.70
2023-05-01T02:07:18.722Z,63.50
2023-05-01T02:09:46.528Z,63.40
2023-05-01T02:12:16.701Z,63.50
2023-05-01T02:14:46.170Z,63.60
2023-05-01T02:17:15.078Z,63.60
2023-05-01T02:19:43.402Z,63.80
2023-05-01T02:22:11.693Z,63.90
2023-05-01T02:24:40.350Z,64.20
2023-05-01T02:27:23.218Z,64.30
2023-05-01T02:29:52.240Z,64.30
2023-05-01T02:32:20.025Z,64.50
2023-05-01T02:34:47.006Z,64.60
2023-05-01T02:37:13.914Z,65.00
2023-05-01T02:39:42.716Z,65.30
2023-05-01T02:42:11.933Z,65.70
2023-05-01T02:44:53.841Z,66.10
2023-05-01T02:47:23.147Z,66.20
2023-05-01T02:49:51.737Z,66.50
2023-05-01T02:52:20.749Z,66.60
2023-05-01T02:54:50.845Z,67.00
2023-05-01T02:57:18.626Z,67.10
2023-05-01T02:59:45.413Z,67.10
2023-05-01T03:02:12.323Z,67.30
2023-05-01T03:04:39.350Z,67.60
2023-05-01T03:07:06.651Z,67.90
2023-05-01T03:09:33.581Z,68.00
2023-05-01T03:12:01.040Z,68.40
2023-05-01T03:14:28.598Z,68.40
2023-05-01T03:16:56.108Z,68.30
2023-05-01T03:19:23.127Z,68.40
2023-05-01T03:21:50.040Z,68.60
2023-05-01T03:24:17.041Z,68.50
2023-05-01T03:26:44.423Z,68.80
2023-05-01T03:29:13.248Z,69.00
2023-05-01T03:31:40.407Z,69.00
2023-05-01T03:34:09.292Z,69.10
2023-05-01T03:36:36.679Z,69.10
2023-05-01T03:39:04.852Z,69.30
2023-05-01T03:41:50.076Z,69.40
2023-05-01T03:44:23.914Z,69.40
2023-05-01T03:46:50.766Z,69.50
2023-05-01T03:49:24.925Z,69.70
2023-05-01T03:51:51.958Z,69.60
2023-05-01T03:54:18.880Z,69.80
2023-05-01T03:57:06.103Z,70.00
2023-05-01T03:59:32.960Z,70.20
2023-05-01T04:01:59.855Z,70.20
2023-05-01T04:04:30.087Z,70.20
2023-05-01T04:06:58.227Z,70.20
2023-05-01T04:09:25.079Z,69.80
2023-05-01T04:11:51.981Z,69.90
2023-05-01T04:14:18.797Z,70.10
2023-05-01T04:16:45.669Z,70.30
2023-05-01T04:19:15.444Z,70.50
2023-05-01T04:21:44.946Z,70.80
2023-05-01T04:24:12.056Z,70.60
2023-05-01T04:26:39.305Z,70.40
2023-05-01T04:29:06.931Z,70.60
2023-05-01T04:31:34.874Z,70.60
2023-05-01T04:34:01.975Z,70.80
2023-05-01T04:36:29.569Z,70.70
2023-05-01T04:38:57.259Z,70.90
2023-05-01T04:41:24.469Z,71.20
2023-05-01T04:43:52.204Z,71.30
2023-05-01T04:46:19.265Z,71.20
2023-05-01T04:48:46.143Z,71.20
2023-05-01T04:51:13.003Z,71.30
2023-05-01T04:53:39.976Z,70.90
2023-05-01T04:56:16.051Z,70.60
2023-05-01T04:58:43.268Z,70.60
2023-05-01T05:01:14.502Z,70.80
2023-05-01T05:03:41.482Z,71.00
2023-05-01T05:06:11.398Z,70.90
2023-05-01T05:08:38.533Z,70.30
2023-05-01T05:11:09.996Z,70.10
2023-05-01T05:13:52.270Z,70.40
2023-05-01T05:16:19.716Z,70.90
2023-05-01T05:18:46.622Z,70.80
2023-05-01T05:21:13.531Z,70.90
2023-05-01T05:23:46.785Z,71.20
2023-05-01T05:26:13.751Z,71.60
2023-05-01T05:28:41.228Z,71.90
2023-05-01T05:31:08.405Z,72.30
2023-05-01T05:33:35.966Z,72.50
2023-05-01T05:36:03.424Z,72.70
2023-05-01T05:38:35.956Z,72.80
2023-05-01T05:41:04.514Z,72.50
2023-05-01T05:43:32.323Z,72.60
2023-05-01T05:46:00.549Z,72.60
2023-05-01T05:48:28.482Z,72.90
2023-05-01T05:50:56.025Z,72.80
2023-05-01T05:53:25.515Z,72.50
2023-05-01T05:55:53.420Z,72.50
2023-05-01T05:58:20.354Z,72.40
2023-05-01T06:00:50.068Z,72.50
2023-05-01T06:03:17.689Z,72.60
2023-05-01T06:05:45.145Z,72.50
2023-05-01T06:08:13.929Z,72.30
2023-05-01T06:10:43.552Z,72.30
2023-05-01T06:13:14.126Z,71.60
2023-05-01T06:15:45.268Z,71.40
2023-05-01T06:18:12.462Z,71.50
2023-05-01T06:20:39.378Z,71.20
2023-05-01T06:23:06.452Z,70.80
2023-05-01T06:25:42.755Z,71.20
2023-05-01T06:28:09.894Z,70.20
2023-05-01T06:30:37.084Z,70.30
2023-05-01T06:33:04.519Z,70.60
2023-05-01T06:35:32.087Z,70.90
2023-05-01T06:38:00.194Z,70.80
2023-05-01T06:40:27.198Z,70.90
2023-05-01T06:42:54.861Z,70.80
2023-05-01T06:45:26.407Z,70.70
2023-05-01T06:47:54.094Z,70.40
2023-05-01T06:50:21.132Z,70.00
2023-05-01T06:52:47.947Z,69.30
2023-05-01T06:55:14.836Z,68.90
2023-05-01T06:57:41.949Z,69.00
2023-05-01T07:00:10.941Z,69.30
2023-05-01T07:02:38.160Z,69.10
2023-05-01T07:05:05.641Z,69.10
2023-05-01T07:07:32.572Z,69.20
2023-05-01T07:09:59.655Z,69.10
2023-05-01T07:12:26.829Z,69.70
2023-05-01T07:14:53.683Z,69.70
2023-05-01T07:17:20.571Z,70.00
